sensor_id;sensor_type;location;lat;lon;timestamp;temperature;humidity
66722;SHT31;53633;49.932;10.884;2023-03-14T00:00:57;9.36;95.93
66722;SHT31;53633;49.932;10.884;2023-03-14T00:03:23;9.37;96.05
66722;SHT31;53633;49.932;10.884;2023-03-14T00:05:50;9.34;96.08
66722;SHT31;53633;49.932;10.884;2023-03-14T00:08:18;9.33;96.39
66722;SHT31;53633;49.932;10.884;2023-03-14T00:10:45;9.27;96.60
66722;SHT31;53633;49.932;10.884;2023-03-14T00:13:11;9.34;96.36
66722;SHT31;53633;49.932;10.884;2023-03-14T00:15:38;9.27;96.27
66722;SHT31;53633;49.932;10.884;2023-03-14T00:18:05;9.31;96.27
66722;SHT31;53633;49.932;10.884;2023-03-14T00:20:32;9.28;96.22
66722;SHT31;53633;49.932;10.884;2023-03-14T00:22:58;9.34;95.72
66722;SHT31;53633;49.932;10.884;2023-03-14T00:25:26;9.30;96.54
66722;SHT31;53633;49.932;10.884;2023-03-14T00:31:15;9.26;96.23
66722;SHT31;53633;49.932;10.884;2023-03-14T00:33:42;9.23;95.84
66722;SHT31;53633;49.932;10.884;2023-03-14T00:36:11;9.15;97.27
66722;SHT31;53633;49.932;10.884;2023-03-14T00:38:39;9.07;97.32
66722;SHT31;53633;49.932;10.884;2023-03-14T00:41:10;9.10;97.33
66722;SHT31;53633;49.932;10.884;2023-03-14T00:43:37;9.19;96.69
66722;SHT31;53633;49.932;10.884;2023-03-14T00:46:04;9.16;96.76
66722;SHT31;53633;49.932;10.884;2023-03-14T00:48:31;9.13;96.71
66722;SHT31;53633;49.932;10.884;2023-03-14T00:50:58;9.13;96.85
66722;SHT31;53633;49.932;10.884;2023-03-14T00:53:24;9.15;96.51
66722;SHT31;53633;49.932;10.884;2023-03-14T00:55:51;9.10;97.13
66722;SHT31;53633;49.932;10.884;2023-03-14T00:58:19;9.10;96.90
66722;SHT31;53633;49.932;10.884;2023-03-14T01:00:46;9.09;97.10
66722;SHT31;53633;49.932;10.884;2023-03-14T01:03:13;9.12;96.54
66722;SHT31;53633;49.932;10.884;2023-03-14T01:05:41;9.10;96.67
66722;SHT31;53633;49.932;10.884;2023-03-14T01:08:08;9.09;96.94
66722;SHT31;53633;49.932;10.884;2023-03-14T01:10:38;9.10;96.60
66722;SHT31;53633;49.932;10.884;2023-03-14T01:13:04;9.12;96.47
66722;SHT31;53633;49.932;10.884;2023-03-14T01:15:33;9.05;97.06
66722;SHT31;53633;49.932;10.884;2023-03-14T01:18:00;9.06;97.05
66722;SHT31;53633;49.932;10.884;2023-03-14T01:20:27;9.05;97.01
66722;SHT31;53633;49.932;10.884;2023-03-14T01:22:53;9.03;96.75
66722;SHT31;53633;49.932;10.884;2023-03-14T01:25:20;9.12;96.35
66722;SHT31;53633;49.932;10.884;2023-03-14T01:27:47;9.12;96.56
66722;SHT31;53633;49.932;10.884;2023-03-14T01:30:14;9.10;96.39
66722;SHT31;53633;49.932;10.884;2023-03-14T01:32:42;9.12;96.48
66722;SHT31;53633;49.932;10.884;2023-03-14T01:35:09;9.07;96.49
66722;SHT31;53633;49.932;10.884;2023-03-14T01:37:35;9.15;96.13
66722;SHT31;53633;49.932;10.884;2023-03-14T01:40:02;9.17;95.59
66722;SHT31;53633;49.932;10.884;2023-03-14T01:42:29;9.24;95.06
66722;SHT31;53633;49.932;10.884;2023-03-14T01:44:57;9.20;95.43
66722;SHT31;53633;49.932;10.884;2023-03-14T01:47:25;9.20;95.27
66722;SHT31;53633;49.932;10.884;2023-03-14T01:49:56;9.26;95.54
66722;SHT31;53633;49.932;10.884;2023-03-14T01:52:27;9.20;95.86
66722;SHT31;53633;49.932;10.884;2023-03-14T01:54:58;9.17;96.09
66722;SHT31;53633;49.932;10.884;2023-03-14T01:57:30;9.20;96.17
66722;SHT31;53633;49.932;10.884;2023-03-14T02:00:03;9.13;96.31
66722;SHT31;53633;49.932;10.884;2023-03-14T02:02:30;9.22;95.97
66722;SHT31;53633;49.932;10.884;2023-03-14T02:04:59;9.17;96.42
66722;SHT31;53633;49.932;10.884;2023-03-14T02:07:30;9.10;96.59
66722;SHT31;53633;49.932;10.884;2023-03-14T02:10:01;9.10;96.45
66722;SHT31;53633;49.932;10.884;2023-03-14T02:12:30;9.13;95.92
66722;SHT31;53633;49.932;10.884;2023-03-14T02:14:56;9.20;95.56
66722;SHT31;53633;49.932;10.884;2023-03-14T02:17:24;9.22;95.53
66722;SHT31;53633;49.932;10.884;2023-03-14T02:20:03;9.17;95.64
66722;SHT31;53633;49.932;10.884;2023-03-14T02:22:33;9.20;95.01
66722;SHT31;53633;49.932;10.884;2023-03-14T02:25:05;9.22;94.89
66722;SHT31;53633;49.932;10.884;2023-03-14T02:27:36;9.16;94.93
66722;SHT31;53633;49.932;10.884;2023-03-14T02:30:05;9.12;94.88
66722;SHT31;53633;49.932;10.884;2023-03-14T02:32:33;9.05;95.34
66722;SHT31;53633;49.932;10.884;2023-03-14T02:35:04;9.07;94.54
66722;SHT31;53633;49.932;10.884;2023-03-14T02:37:35;9.06;94.45
66722;SHT31;53633;49.932;10.884;2023-03-14T02:40:03;9.03;94.98
66722;SHT31;53633;49.932;10.884;2023-03-14T02:42:30;9.06;94.38
66722;SHT31;53633;49.932;10.884;2023-03-14T02:45:24;9.09;94.64
66722;SHT31;53633;49.932;10.884;2023-03-14T02:47:52;9.03;94.66
66722;SHT31;53633;49.932;10.884;2023-03-14T02:50:23;9.03;94.25
66722;SHT31;53633;49.932;10.884;2023-03-14T02:52:51;9.09;94.06
66722;SHT31;53633;49.932;10.884;2023-03-14T02:55:20;9.10;93.81
66722;SHT31;53633;49.932;10.884;2023-03-14T02:57:47;9.10;93.62
66722;SHT31;53633;49.932;10.884;2023-03-14T03:00:16;9.07;93.75
66722;SHT31;53633;49.932;10.884;2023-03-14T03:02:42;9.12;93.31
66722;SHT31;53633;49.932;10.884;2023-03-14T03:05:09;9.17;93.11
66722;SHT31;53633;49.932;10.884;2023-03-14T03:07:36;9.17;93.00
66722;SHT31;53633;49.932;10.884;2023-03-14T03:10:04;9.19;92.89
66722;SHT31;53633;49.932;10.884;2023-03-14T03:12:30;9.15;93.14
66722;SHT31;53633;49.932;10.884;2023-03-14T03:14:57;9.10;93.45
66722;SHT31;53633;49.932;10.884;2023-03-14T03:17:25;9.19;92.92
66722;SHT31;53633;49.932;10.884;2023-03-14T03:19:52;9.09;93.26
66722;SHT31;53633;49.932;10.884;2023-03-14T03:22:18;9.15;93.00
66722;SHT31;53633;49.932;10.884;2023-03-14T03:24:45;9.07;93.40
66722;SHT31;53633;49.932;10.884;2023-03-14T03:27:12;9.17;92.70
66722;SHT31;53633;49.932;10.884;2023-03-14T03:29:38;9.13;93.16
66722;SHT31;53633;49.932;10.884;2023-03-14T03:32:05;9.10;92.99
66722;SHT31;53633;49.932;10.884;2023-03-14T03:34:33;9.03;93.45
66722;SHT31;53633;49.932;10.884;2023-03-14T03:37:00;8.95;93.75
66722;SHT31;53633;49.932;10.884;2023-03-14T03:39:26;8.86;94.06
66722;SHT31;53633;49.932;10.884;2023-03-14T03:41:53;8.86;94.08
66722;SHT31;53633;49.932;10.884;2023-03-14T03:44:20;8.76;94.72
66722;SHT31;53633;49.932;10.884;2023-03-14T03:46:46;8.71;95.08
66722;SHT31;53633;49.932;10.884;2023-03-14T03:49:13;8.69;94.91
66722;SHT31;53633;49.932;10.884;2023-03-14T03:51:41;8.65;95.23
66722;SHT31;53633;49.932;10.884;2023-03-14T03:54:08;8.65;95.23
66722;SHT31;53633;49.932;10.884;2023-03-14T03:56:34;8.68;95.42
66722;SHT31;53633;49.932;10.884;2023-03-14T03:59:01;8.72;95.13
66722;SHT31;53633;49.932;10.884;2023-03-14T04:01:28;8.76;95.14
66722;SHT31;53633;49.932;10.884;2023-03-14T04:03:55;8.86;94.57
66722;SHT31;53633;49.932;10.884;2023-03-14T04:06:22;8.89;94.42
66722;SHT31;53633;49.932;10.884;2023-03-14T04:08:50;8.88;94.67
66722;SHT31;53633;49.932;10.884;2023-03-14T04:11:16;8.78;94.76
66722;SHT31;53633;49.932;10.884;2023-03-14T04:13:43;8.82;94.60
66722;SHT31;53633;49.932;10.884;2023-03-14T04:16:14;8.88;94.69
66722;SHT31;53633;49.932;10.884;2023-03-14T04:18:41;8.89;94.54
66722;SHT31;53633;49.932;10.884;2023-03-14T04:21:08;8.88;94.75
66722;SHT31;53633;49.932;10.884;2023-03-14T04:23:34;8.80;95.00
66722;SHT31;53633;49.932;10.884;2023-03-14T04:26:02;8.79;95.13
66722;SHT31;53633;49.932;10.884;2023-03-14T04:28:29;8.75;95.19
66722;SHT31;53633;49.932;10.884;2023-03-14T04:30:56;8.83;94.88
66722;SHT31;53633;49.932;10.884;2023-03-14T04:33:23;8.78;95.24
66722;SHT31;53633;49.932;10.884;2023-03-14T04:35:53;8.73;95.23
66722;SHT31;53633;49.932;10.884;2023-03-14T04:38:20;8.73;95.07
66722;SHT31;53633;49.932;10.884;2023-03-14T04:40:46;8.68;95.04
66722;SHT31;53633;49.932;10.884;2023-03-14T04:43:15;8.60;95.30
66722;SHT31;53633;49.932;10.884;2023-03-14T04:45:41;8.61;95.69
66722;SHT31;53633;49.932;10.884;2023-03-14T04:48:08;8.72;94.90
66722;SHT31;53633;49.932;10.884;2023-03-14T04:50:35;8.71;95.40
66722;SHT31;53633;49.932;10.884;2023-03-14T04:53:02;8.64;95.48
66722;SHT31;53633;49.932;10.884;2023-03-14T04:55:28;8.67;95.28
66722;SHT31;53633;49.932;10.884;2023-03-14T04:57:55;8.67;95.45
66722;SHT31;53633;49.932;10.884;2023-03-14T05:00:23;8.67;95.95
66722;SHT31;53633;49.932;10.884;2023-03-14T05:02:50;8.64;95.88
66722;SHT31;53633;49.932;10.884;2023-03-14T05:05:17;8.57;96.07
66722;SHT31;53633;49.932;10.884;2023-03-14T05:07:46;8.62;96.06
66722;SHT31;53633;49.932;10.884;2023-03-14T05:10:13;8.69;96.14
66722;SHT31;53633;49.932;10.884;2023-03-14T05:12:40;8.75;95.83
66722;SHT31;53633;49.932;10.884;2023-03-14T05:15:08;8.75;95.29
66722;SHT31;53633;49.932;10.884;2023-03-14T05:17:36;8.75;95.47
66722;SHT31;53633;49.932;10.884;2023-03-14T05:20:03;8.71;95.83
66722;SHT31;53633;49.932;10.884;2023-03-14T05:22:30;8.65;96.02
66722;SHT31;53633;49.932;10.884;2023-03-14T05:24:57;8.65;95.53
66722;SHT31;53633;49.932;10.884;2023-03-14T05:27:23;8.72;95.23
66722;SHT31;53633;49.932;10.884;2023-03-14T05:29:50;8.67;95.22
66722;SHT31;53633;49.932;10.884;2023-03-14T05:32:17;8.72;94.97
66722;SHT31;53633;49.932;10.884;2023-03-14T05:34:45;8.58;95.25
66722;SHT31;53633;49.932;10.884;2023-03-14T05:37:11;8.40;96.12
66722;SHT31;53633;49.932;10.884;2023-03-14T05:39:41;8.36;96.37
66722;SHT31;53633;49.932;10.884;2023-03-14T05:42:07;8.30;96.54
66722;SHT31;53633;49.932;10.884;2023-03-14T05:44:34;8.24;96.66
66722;SHT31;53633;49.932;10.884;2023-03-14T05:47:01;8.22;96.70
66722;SHT31;53633;49.932;10.884;2023-03-14T05:49:27;8.20;96.70
66722;SHT31;53633;49.932;10.884;2023-03-14T05:51:55;8.19;96.54
66722;SHT31;53633;49.932;10.884;2023-03-14T05:54:22;8.29;96.34
66722;SHT31;53633;49.932;10.884;2023-03-14T05:56:49;8.19;96.44
66722;SHT31;53633;49.932;10.884;2023-03-14T05:59:17;8.27;96.15
66722;SHT31;53633;49.932;10.884;2023-03-14T06:01:44;8.17;96.71
66722;SHT31;53633;49.932;10.884;2023-03-14T06:04:11;8.22;96.50
66722;SHT31;53633;49.932;10.884;2023-03-14T06:06:38;8.19;96.55
66722;SHT31;53633;49.932;10.884;2023-03-14T06:09:06;8.19;96.46
66722;SHT31;53633;49.932;10.884;2023-03-14T06:11:32;8.26;96.18
66722;SHT31;53633;49.932;10.884;2023-03-14T06:13:59;8.37;95.71
66722;SHT31;53633;49.932;10.884;2023-03-14T06:16:26;8.40;95.33
66722;SHT31;53633;49.932;10.884;2023-03-14T06:18:52;8.54;94.82
66722;SHT31;53633;49.932;10.884;2023-03-14T06:21:19;8.54;94.59
66722;SHT31;53633;49.932;10.884;2023-03-14T06:23:46;8.58;94.66
66722;SHT31;53633;49.932;10.884;2023-03-14T06:26:14;8.55;94.70
66722;SHT31;53633;49.932;10.884;2023-03-14T06:28:40;8.68;93.99
66722;SHT31;53633;49.932;10.884;2023-03-14T06:31:07;8.78;93.58
66722;SHT31;53633;49.932;10.884;2023-03-14T06:33:37;8.95;93.25
66722;SHT31;53633;49.932;10.884;2023-03-14T06:36:04;8.95;92.94
66722;SHT31;53633;49.932;10.884;2023-03-14T06:38:31;9.03;92.76
66722;SHT31;53633;49.932;10.884;2023-03-14T06:41:03;9.13;92.35
66722;SHT31;53633;49.932;10.884;2023-03-14T06:43:31;9.12;91.61
66722;SHT31;53633;49.932;10.884;2023-03-14T06:45:58;9.15;92.36
66722;SHT31;53633;49.932;10.884;2023-03-14T06:48:24;9.16;91.61
66722;SHT31;53633;49.932;10.884;2023-03-14T06:50:51;9.24;91.27
66722;SHT31;53633;49.932;10.884;2023-03-14T06:53:18;9.27;91.02
66722;SHT31;53633;49.932;10.884;2023-03-14T06:55:45;9.31;91.47
66722;SHT31;53633;49.932;10.884;2023-03-14T06:58:12;9.44;91.51
66722;SHT31;53633;49.932;10.884;2023-03-14T07:00:40;9.44;91.12
66722;SHT31;53633;49.932;10.884;2023-03-14T07:03:08;9.68;89.17
66722;SHT31;53633;49.932;10.884;2023-03-14T07:05:38;9.67;90.33
66722;SHT31;53633;49.932;10.884;2023-03-14T07:08:05;9.75;88.72
66722;SHT31;53633;49.932;10.884;2023-03-14T07:10:33;9.78;89.95
66722;SHT31;53633;49.932;10.884;2023-03-14T07:13:00;9.82;89.29
66722;SHT31;53633;49.932;10.884;2023-03-14T07:15:26;9.71;89.00
66722;SHT31;53633;49.932;10.884;2023-03-14T07:17:54;9.71;89.51
66722;SHT31;53633;49.932;10.884;2023-03-14T07:20:21;9.78;89.28
66722;SHT31;53633;49.932;10.884;2023-03-14T07:22:48;9.96;88.08
66722;SHT31;53633;49.932;10.884;2023-03-14T07:25:15;10.16;87.10
66722;SHT31;53633;49.932;10.884;2023-03-14T07:27:42;10.68;86.15
66722;SHT31;53633;49.932;10.884;2023-03-14T07:30:10;10.71;85.95
66722;SHT31;53633;49.932;10.884;2023-03-14T07:32:37;11.19;85.13
66722;SHT31;53633;49.932;10.884;2023-03-14T07:35:07;10.99;84.23
66722;SHT31;53633;49.932;10.884;2023-03-14T07:37:34;10.82;85.10
66722;SHT31;53633;49.932;10.884;2023-03-14T07:40:01;10.61;86.24
66722;SHT31;53633;49.932;10.884;2023-03-14T07:42:28;11.02;85.74
66722;SHT31;53633;49.932;10.884;2023-03-14T07:44:54;10.98;85.62
66722;SHT31;53633;49.932;10.884;2023-03-14T07:47:21;10.84;85.03
66722;SHT31;53633;49.932;10.884;2023-03-14T07:49:48;10.74;85.11
66722;SHT31;53633;49.932;10.884;2023-03-14T07:52:16;10.89;85.40
66722;SHT31;53633;49.932;10.884;2023-03-14T07:54:42;10.96;85.25
66722;SHT31;53633;49.932;10.884;2023-03-14T07:57:09;10.98;84.79
66722;SHT31;53633;49.932;10.884;2023-03-14T07:59:36;10.96;84.50
66722;SHT31;53633;49.932;10.884;2023-03-14T08:02:02;10.82;83.95
66722;SHT31;53633;49.932;10.884;2023-03-14T08:04:29;10.67;84.03
66722;SHT31;53633;49.932;10.884;2023-03-14T08:06:56;10.65;84.77
66722;SHT31;53633;49.932;10.884;2023-03-14T08:09:24;10.53;84.89
66722;SHT31;53633;49.932;10.884;2023-03-14T08:11:50;10.57;84.82
66722;SHT31;53633;49.932;10.884;2023-03-14T08:14:17;10.68;84.18
66722;SHT31;53633;49.932;10.884;2023-03-14T08:16:44;10.86;83.50
66722;SHT31;53633;49.932;10.884;2023-03-14T08:19:11;11.18;83.33
66722;SHT31;53633;49.932;10.884;2023-03-14T08:21:37;11.46;81.66
66722;SHT31;53633;49.932;10.884;2023-03-14T08:24:04;11.40;81.46
66722;SHT31;53633;49.932;10.884;2023-03-14T08:26:32;11.43;80.92
66722;SHT31;53633;49.932;10.884;2023-03-14T08:28:59;11.46;80.67
66722;SHT31;53633;49.932;10.884;2023-03-14T08:31:26;11.42;81.25
66722;SHT31;53633;49.932;10.884;2023-03-14T08:33:53;11.29;79.55
66722;SHT31;53633;49.932;10.884;2023-03-14T08:36:20;11.15;79.87
66722;SHT31;53633;49.932;10.884;2023-03-14T08:38:49;11.11;79.81
66722;SHT31;53633;49.932;10.884;2023-03-14T08:41:16;11.19;79.51
66722;SHT31;53633;49.932;10.884;2023-03-14T08:43:44;11.24;78.81
66722;SHT31;53633;49.932;10.884;2023-03-14T08:46:11;11.22;80.26
66722;SHT31;53633;49.932;10.884;2023-03-14T08:48:38;11.16;79.59
66722;SHT31;53633;49.932;10.884;2023-03-14T08:51:05;11.12;79.72
66722;SHT31;53633;49.932;10.884;2023-03-14T08:53:32;11.02;79.36
66722;SHT31;53633;49.932;10.884;2023-03-14T08:55:59;11.02;79.68
66722;SHT31;53633;49.932;10.884;2023-03-14T08:58:26;11.04;79.17
66722;SHT31;53633;49.932;10.884;2023-03-14T09:00:54;11.08;79.00
66722;SHT31;53633;49.932;10.884;2023-03-14T09:03:21;11.08;79.42
66722;SHT31;53633;49.932;10.884;2023-03-14T09:05:47;11.13;79.67
66722;SHT31;53633;49.932;10.884;2023-03-14T09:08:14;11.19;79.69
66722;SHT31;53633;49.932;10.884;2023-03-14T09:10:41;11.16;80.09
66722;SHT31;53633;49.932;10.884;2023-03-14T09:13:07;11.13;79.73
66722;SHT31;53633;49.932;10.884;2023-03-14T09:15:34;11.05;79.24
66722;SHT31;53633;49.932;10.884;2023-03-14T09:18:02;11.09;79.02
66722;SHT31;53633;49.932;10.884;2023-03-14T09:20:29;11.09;78.54
66722;SHT31;53633;49.932;10.884;2023-03-14T09:22:56;11.06;79.10
66722;SHT31;53633;49.932;10.884;2023-03-14T09:25:22;11.11;79.41
66722;SHT31;53633;49.932;10.884;2023-03-14T09:27:49;11.12;78.37
66722;SHT31;53633;49.932;10.884;2023-03-14T09:30:17;11.15;79.35
66722;SHT31;53633;49.932;10.884;2023-03-14T09:32:43;11.22;79.58
66722;SHT31;53633;49.932;10.884;2023-03-14T09:35:12;11.29;78.16
66722;SHT31;53633;49.932;10.884;2023-03-14T09:37:38;11.40;78.59
66722;SHT31;53633;49.932;10.884;2023-03-14T09:40:06;11.39;77.64
66722;SHT31;53633;49.932;10.884;2023-03-14T09:42:36;11.54;77.58
66722;SHT31;53633;49.932;10.884;2023-03-14T09:45:06;11.60;77.40
66722;SHT31;53633;49.932;10.884;2023-03-14T09:47:34;11.71;76.77
66722;SHT31;53633;49.932;10.884;2023-03-14T09:50:14;11.54;76.69
66722;SHT31;53633;49.932;10.884;2023-03-14T09:52:42;11.61;77.02
66722;SHT31;53633;49.932;10.884;2023-03-14T09:55:13;11.57;76.35
66722;SHT31;53633;49.932;10.884;2023-03-14T09:57:41;11.63;76.29
66722;SHT31;53633;49.932;10.884;2023-03-14T10:00:14;11.59;76.28
66722;SHT31;53633;49.932;10.884;2023-03-14T10:02:47;11.60;77.04
66722;SHT31;53633;49.932;10.884;2023-03-14T10:05:19;11.54;76.70
66722;SHT31;53633;49.932;10.884;2023-03-14T10:07:46;11.49;76.22
66722;SHT31;53633;49.932;10.884;2023-03-14T10:10:16;11.51;77.02
66722;SHT31;53633;49.932;10.884;2023-03-14T10:12:45;11.51;76.57
66722;SHT31;53633;49.932;10.884;2023-03-14T10:15:13;11.46;77.43
66722;SHT31;53633;49.932;10.884;2023-03-14T10:17:41;11.44;77.36
66722;SHT31;53633;49.932;10.884;2023-03-14T10:20:27;11.46;77.76
66722;SHT31;53633;49.932;10.884;2023-03-14T10:22:54;11.44;77.54
66722;SHT31;53633;49.932;10.884;2023-03-14T10:25:26;11.42;77.71
66722;SHT31;53633;49.932;10.884;2023-03-14T10:27:53;11.53;76.87
66722;SHT31;53633;49.932;10.884;2023-03-14T10:30:29;11.56;76.59
66722;SHT31;53633;49.932;10.884;2023-03-14T10:32:56;11.57;76.75
66722;SHT31;53633;49.932;10.884;2023-03-14T10:35:27;11.61;75.71
66722;SHT31;53633;49.932;10.884;2023-03-14T10:38:00;11.78;75.92
66722;SHT31;53633;49.932;10.884;2023-03-14T10:40:30;11.80;75.75
66722;SHT31;53633;49.932;10.884;2023-03-14T10:42:58;11.89;75.60
66722;SHT31;53633;49.932;10.884;2023-03-14T10:45:31;11.97;75.24
66722;SHT31;53633;49.932;10.884;2023-03-14T10:48:05;12.02;75.00
66722;SHT31;53633;49.932;10.884;2023-03-14T10:50:33;12.11;75.62
66722;SHT31;53633;49.932;10.884;2023-03-14T10:53:02;12.18;74.73
66722;SHT31;53633;49.932;10.884;2023-03-14T10:55:39;12.28;74.68
66722;SHT31;53633;49.932;10.884;2023-03-14T10:58:18;12.33;74.24
66722;SHT31;53633;49.932;10.884;2023-03-14T11:00:46;12.60;74.31
66722;SHT31;53633;49.932;10.884;2023-03-14T11:03:15;13.05;72.47
66722;SHT31;53633;49.932;10.884;2023-03-14T11:05:48;13.35;71.33
66722;SHT31;53633;49.932;10.884;2023-03-14T11:08:23;13.56;71.21
66722;SHT31;53633;49.932;10.884;2023-03-14T11:10:54;13.55;70.02
66722;SHT31;53633;49.932;10.884;2023-03-14T11:13:23;13.77;71.28
66722;SHT31;53633;49.932;10.884;2023-03-14T11:15:58;13.53;69.45
66722;SHT31;53633;49.932;10.884;2023-03-14T11:18:57;13.55;70.02
66722;SHT31;53633;49.932;10.884;2023-03-14T11:21:29;13.66;70.39
66722;SHT31;53633;49.932;10.884;2023-03-14T11:24:12;13.88;70.85
66722;SHT31;53633;49.932;10.884;2023-03-14T11:26:48;13.83;68.64
66722;SHT31;53633;49.932;10.884;2023-03-14T11:29:21;13.91;68.07
66722;SHT31;53633;49.932;10.884;2023-03-14T11:31:48;13.98;68.51
66722;SHT31;53633;49.932;10.884;2023-03-14T11:34:17;13.88;68.92
66722;SHT31;53633;49.932;10.884;2023-03-14T11:36:51;13.90;68.89
66722;SHT31;53633;49.932;10.884;2023-03-14T11:39:20;13.84;68.80
66722;SHT31;53633;49.932;10.884;2023-03-14T11:41:48;13.91;68.85
66722;SHT31;53633;49.932;10.884;2023-03-14T11:44:18;14.17;68.89
66722;SHT31;53633;49.932;10.884;2023-03-14T11:46:48;14.28;68.79
66722;SHT31;53633;49.932;10.884;2023-03-14T11:49:26;14.32;68.58
66722;SHT31;53633;49.932;10.884;2023-03-14T11:51:59;14.32;67.41
66722;SHT31;53633;49.932;10.884;2023-03-14T11:54:33;14.24;67.84
66722;SHT31;53633;49.932;10.884;2023-03-14T11:57:02;14.31;68.26
66722;SHT31;53633;49.932;10.884;2023-03-14T11:59:38;14.36;67.39
66722;SHT31;53633;49.932;10.884;2023-03-14T12:02:14;14.41;67.44
66722;SHT31;53633;49.932;10.884;2023-03-14T12:04:52;14.39;67.72
66722;SHT31;53633;49.932;10.884;2023-03-14T12:07:28;14.31;67.71
66722;SHT31;53633;49.932;10.884;2023-03-14T12:09:56;14.18;67.83
66722;SHT31;53633;49.932;10.884;2023-03-14T12:12:25;14.01;69.07
66722;SHT31;53633;49.932;10.884;2023-03-14T12:14:55;13.98;68.64
66722;SHT31;53633;49.932;10.884;2023-03-14T12:17:26;14.01;68.59
66722;SHT31;53633;49.932;10.884;2023-03-14T12:20:06;14.01;68.17
66722;SHT31;53633;49.932;10.884;2023-03-14T12:22:44;13.84;69.62
66722;SHT31;53633;49.932;10.884;2023-03-14T12:25:18;13.88;70.90
66722;SHT31;53633;49.932;10.884;2023-03-14T12:28:03;13.48;72.95
66722;SHT31;53633;49.932;10.884;2023-03-14T12:30:32;13.38;73.30
66722;SHT31;53633;49.932;10.884;2023-03-14T12:36:01;13.53;72.99
66722;SHT31;53633;49.932;10.884;2023-03-14T12:38:42;13.39;74.69
66722;SHT31;53633;49.932;10.884;2023-03-14T12:41:14;13.02;79.44
66722;SHT31;53633;49.932;10.884;2023-03-14T12:43:41;12.91;81.19
66722;SHT31;53633;49.932;10.884;2023-03-14T12:46:15;12.90;81.07
66722;SHT31;53633;49.932;10.884;2023-03-14T12:48:46;12.68;80.11
66722;SHT31;53633;49.932;10.884;2023-03-14T12:51:15;12.46;79.90
66722;SHT31;53633;49.932;10.884;2023-03-14T12:54:16;12.28;81.06
66722;SHT31;53633;49.932;10.884;2023-03-14T12:57:13;12.02;82.15
66722;SHT31;53633;49.932;10.884;2023-03-14T12:59:46;11.97;83.11
66722;SHT31;53633;49.932;10.884;2023-03-14T13:02:23;12.14;82.21
66722;SHT31;53633;49.932;10.884;2023-03-14T13:04:52;12.21;81.45
66722;SHT31;53633;49.932;10.884;2023-03-14T13:07:33;12.21;81.70
66722;SHT31;53633;49.932;10.884;2023-03-14T13:10:16;11.94;81.22
66722;SHT31;53633;49.932;10.884;2023-03-14T13:12:48;11.78;80.51
66722;SHT31;53633;49.932;10.884;2023-03-14T13:15:22;11.57;81.62
66722;SHT31;53633;49.932;10.884;2023-03-14T13:17:52;11.33;83.03
66722;SHT31;53633;49.932;10.884;2023-03-14T13:20:26;11.37;82.93
66722;SHT31;53633;49.932;10.884;2023-03-14T13:22:54;11.33;83.96
66722;SHT31;53633;49.932;10.884;2023-03-14T13:25:22;11.09;84.27
66722;SHT31;53633;49.932;10.884;2023-03-14T13:27:52;11.16;84.61
66722;SHT31;53633;49.932;10.884;2023-03-14T13:30:24;10.92;85.89
66722;SHT31;53633;49.932;10.884;2023-03-14T13:32:53;10.99;85.86
66722;SHT31;53633;49.932;10.884;2023-03-14T13:35:25;10.89;85.92
66722;SHT31;53633;49.932;10.884;2023-03-14T13:37:55;10.94;86.17
66722;SHT31;53633;49.932;10.884;2023-03-14T13:40:38;10.89;87.10
66722;SHT31;53633;49.932;10.884;2023-03-14T13:43:12;10.88;86.97
66722;SHT31;53633;49.932;10.884;2023-03-14T13:45:50;10.78;86.89
66722;SHT31;53633;49.932;10.884;2023-03-14T13:48:17;10.63;88.29
66722;SHT31;53633;49.932;10.884;2023-03-14T13:50:56;10.54;88.92
66722;SHT31;53633;49.932;10.884;2023-03-14T13:53:23;10.46;89.77
66722;SHT31;53633;49.932;10.884;2023-03-14T13:55:52;10.50;90.04
66722;SHT31;53633;49.932;10.884;2023-03-14T13:58:21;10.50;89.73
66722;SHT31;53633;49.932;10.884;2023-03-14T14:00:57;10.44;90.18
66722;SHT31;53633;49.932;10.884;2023-03-14T14:03:24;10.53;89.05
66722;SHT31;53633;49.932;10.884;2023-03-14T14:05:52;10.39;90.37
66722;SHT31;53633;49.932;10.884;2023-03-14T14:08:20;10.47;90.48
66722;SHT31;53633;49.932;10.884;2023-03-14T14:10:47;10.47;89.88
66722;SHT31;53633;49.932;10.884;2023-03-14T14:13:17;10.44;89.84
66722;SHT31;53633;49.932;10.884;2023-03-14T14:15:48;10.44;89.86
66722;SHT31;53633;49.932;10.884;2023-03-14T14:18:18;10.48;89.41
66722;SHT31;53633;49.932;10.884;2023-03-14T14:20:46;10.39;90.24
66722;SHT31;53633;49.932;10.884;2023-03-14T14:23:16;10.46;88.87
66722;SHT31;53633;49.932;10.884;2023-03-14T14:25:45;10.41;88.14
66722;SHT31;53633;49.932;10.884;2023-03-14T14:28:24;10.40;88.35
66722;SHT31;53633;49.932;10.884;2023-03-14T14:31:00;10.54;83.83
66722;SHT31;53633;49.932;10.884;2023-03-14T14:33:27;10.63;83.60
66722;SHT31;53633;49.932;10.884;2023-03-14T14:35:56;10.43;81.82
66722;SHT31;53633;49.932;10.884;2023-03-14T14:38:24;10.30;82.34
66722;SHT31;53633;49.932;10.884;2023-03-14T14:40:53;10.32;81.80
66722;SHT31;53633;49.932;10.884;2023-03-14T14:43:36;10.24;80.86
66722;SHT31;53633;49.932;10.884;2023-03-14T14:46:06;10.06;81.02
66722;SHT31;53633;49.932;10.884;2023-03-14T14:48:37;9.95;81.30
66722;SHT31;53633;49.932;10.884;2023-03-14T14:51:05;9.92;82.76
66722;SHT31;53633;49.932;10.884;2023-03-14T14:53:38;9.83;81.70
66722;SHT31;53633;49.932;10.884;2023-03-14T14:56:07;9.75;81.80
66722;SHT31;53633;49.932;10.884;2023-03-14T14:58:44;9.65;81.68
66722;SHT31;53633;49.932;10.884;2023-03-14T15:01:14;9.71;82.13
66722;SHT31;53633;49.932;10.884;2023-03-14T15:03:43;9.81;81.80
66722;SHT31;53633;49.932;10.884;2023-03-14T15:06:12;9.86;81.13
66722;SHT31;53633;49.932;10.884;2023-03-14T15:08:39;9.85;80.40
66722;SHT31;53633;49.932;10.884;2023-03-14T15:11:09;9.92;79.14
66722;SHT31;53633;49.932;10.884;2023-03-14T15:13:39;9.99;80.14
66722;SHT31;53633;49.932;10.884;2023-03-14T15:16:10;10.14;78.98
66722;SHT31;53633;49.932;10.884;2023-03-14T15:18:37;10.20;79.36
66722;SHT31;53633;49.932;10.884;2023-03-14T15:21:04;10.19;79.57
66722;SHT31;53633;49.932;10.884;2023-03-14T15:23:31;10.13;78.60
66722;SHT31;53633;49.932;10.884;2023-03-14T15:25:58;10.13;78.68
66722;SHT31;53633;49.932;10.884;2023-03-14T15:28:26;9.99;78.50
66722;SHT31;53633;49.932;10.884;2023-03-14T15:30:55;10.09;77.99
66722;SHT31;53633;49.932;10.884;2023-03-14T15:33:24;9.92;78.17
66722;SHT31;53633;49.932;10.884;2023-03-14T15:35:51;9.88;78.51
66722;SHT31;53633;49.932;10.884;2023-03-14T15:38:20;9.93;79.13
66722;SHT31;53633;49.932;10.884;2023-03-14T15:40:48;10.02;78.73